Time;durP1;ratioP1;P1;durP2;ratioP2;P2;SDS_P1;SDS_P2;PMS_P1;PMS_P2;Temp;Humidity;BMP_temperature;BMP_pressure;BME280_temperature;BME280_humidity;BME280_pressure;Samples;Min_cycle;Max_cycle;Signal;HPM_P1;HPM_P2
2022/08/06 00:01:36;;;;;;;3.20;1.97;;;21.80;99.90;;;;;;5004558;28;20869;-68
2022/08/06 00:04:02;;;;;;;2.07;1.87;;;21.80;99.90;;;;;;5005374;28;20700;-68
2022/08/06 00:06:28;;;;;;;2.30;2.10;;;22.10;99.90;;;;;;5005167;28;20176;-67
2022/08/06 00:08:54;;;;;;;2.60;2.40;;;22.20;99.90;;;;;;5005164;28;20697;-69
2022/08/06 00:11:20;;;;;;;2.47;2.10;;;22.10;99.90;;;;;;5004803;28;21114;-67
2022/08/06 00:13:45;;;;;;;2.30;2.10;;;22.20;99.90;;;;;;5004951;28;20200;-67
2022/08/06 00:16:11;;;;;;;2.80;2.50;;;22.10;99.90;;;;;;5004975;28;20183;-66
2022/08/06 00:18:36;;;;;;;2.30;2.10;;;22.00;99.90;;;;;;5005000;28;20557;-67
2022/08/06 00:21:02;;;;;;;2.90;2.10;;;22.10;99.90;;;;;;5004758;28;20780;-67
2022/08/06 00:23:28;;;;;;;2.50;2.10;;;22.20;99.90;;;;;;5004628;28;20516;-65
2022/08/06 00:25:54;;;;;;;2.60;2.30;;;22.00;99.90;;;;;;5004462;28;20896;-67
2022/08/06 00:28:23;;;;;;;2.60;2.07;;;22.00;99.90;;;;;;5004141;28;20745;-65
2022/08/06 00:30:49;;;;;;;3.37;2.20;;;22.10;99.90;;;;;;5004027;28;20200;-66
2022/08/06 00:33:15;;;;;;;2.70;2.03;;;21.90;99.90;;;;;;5004960;28;20718;-66
2022/08/06 00:35:41;;;;;;;2.50;2.03;;;21.60;99.90;;;;;;5003340;28;20458;-66
2022/08/06 00:38:06;;;;;;;3.10;2.33;;;21.70;99.90;;;;;;4986358;28;20453;-66
2022/08/06 00:40:32;;;;;;;2.33;1.80;;;21.70;99.90;;;;;;5004420;28;20187;-68
2022/08/06 00:42:59;;;;;;;3.23;2.17;;;21.60;99.90;;;;;;5004633;28;20183;-68
2022/08/06 00:45:25;;;;;;;2.90;2.60;;;21.60;99.90;;;;;;5004816;28;20239;-68
2022/08/06 00:47:52;;;;;;;4.47;2.27;;;21.50;99.90;;;;;;5004220;28;20427;-69
2022/08/06 00:50:18;;;;;;;2.13;1.43;;;21.40;99.90;;;;;;5004570;28;20196;-68
2022/08/06 00:52:45;;;;;;;3.10;2.60;;;21.40;99.90;;;;;;5003889;28;20425;-67
2022/08/06 00:55:12;;;;;;;2.30;2.10;;;21.40;99.90;;;;;;5004178;28;20530;-68
2022/08/06 00:57:37;;;;;;;2.30;2.00;;;21.40;99.90;;;;;;5005162;28;20419;-66
2022/08/06 01:00:05;;;;;;;4.87;2.37;;;21.40;99.90;;;;;;5004236;28;20461;-69
2022/08/06 01:02:31;;;;;;;2.90;1.83;;;21.30;99.90;;;;;;5004164;28;20834;-69
2022/08/06 01:04:56;;;;;;;2.67;2.07;;;21.40;99.90;;;;;;5004132;28;20426;-68
2022/08/06 01:07:22;;;;;;;3.10;2.27;;;21.40;99.90;;;;;;5003590;28;20554;-67
2022/08/06 01:09:49;;;;;;;3.73;2.23;;;21.30;99.90;;;;;;5004064;28;20290;-67
2022/08/06 01:12:15;;;;;;;3.93;1.90;;;21.30;99.90;;;;;;5003556;28;20172;-67
2022/08/06 01:14:41;;;;;;;1.93;1.63;;;21.30;99.90;;;;;;5003885;28;20517;-66
2022/08/06 01:17:21;;;;;;;2.33;1.90;;;21.40;99.90;;;;;;5003819;28;20485;-64
2022/08/06 01:19:59;;;;;;;4.03;1.97;;;21.40;99.90;;;;;;5003923;28;20175;-66
2022/08/06 01:22:24;;;;;;;1.90;1.60;;;21.40;99.90;;;;;;5003495;28;20422;-66
2022/08/06 01:25:04;;;;;;;1.93;1.73;;;21.10;99.90;;;;;;5003279;28;20443;-66
2022/08/06 01:27:39;;;;;;;1.57;1.47;;;21.20;99.90;;;;;;5003804;28;20258;-67
2022/08/06 01:30:14;;;;;;;2.03;1.67;;;21.40;99.90;;;;;;5003877;28;20441;-67
2022/08/06 01:33:06;;;;;;;2.50;1.70;;;21.40;99.90;;;;;;5004197;28;20406;-66
2022/08/06 01:35:38;;;;;;;3.00;1.70;;;21.40;99.90;;;;;;5004054;28;20525;-66
2022/08/06 01:38:06;;;;;;;1.87;1.50;;;21.40;99.90;;;;;;5001886;28;20415;-66
2022/08/06 01:40:35;;;;;;;2.40;1.27;;;21.60;99.90;;;;;;5003193;28;20407;-66
2022/08/06 01:43:03;;;;;;;2.10;1.53;;;21.30;99.90;;;;;;5003503;28;20454;-66
2022/08/06 01:45:32;;;;;;;2.20;1.60;;;21.20;99.90;;;;;;5004009;28;20481;-67
2022/08/06 01:48:01;;;;;;;2.03;1.83;;;21.30;99.90;;;;;;5003849;28;20415;-66
2022/08/06 01:50:33;;;;;;;3.93;2.47;;;21.50;99.90;;;;;;5003623;28;20454;-66
2022/08/06 01:53:02;;;;;;;2.13;1.47;;;21.50;99.90;;;;;;5003531;28;20415;-66
2022/08/06 01:55:32;;;;;;;1.80;1.70;;;21.30;99.90;;;;;;5003399;28;20423;-66
2022/08/06 01:58:01;;;;;;;3.43;1.90;;;21.20;99.90;;;;;;5004126;28;20402;-68
2022/08/06 02:00:27;;;;;;;3.40;1.80;;;20.80;99.90;;;;;;5002444;28;20423;-66
2022/08/06 02:02:55;;;;;;;2.50;1.40;;;20.60;99.90;;;;;;5004005;28;20427;-66
2022/08/06 02:05:22;;;;;;;2.67;1.90;;;20.80;99.90;;;;;;5003194;28;20619;-66
2022/08/06 02:07:52;;;;;;;1.83;1.73;;;20.80;99.90;;;;;;5003260;28;20411;-66
2022/08/06 02:10:20;;;;;;;2.23;2.00;;;20.70;99.90;;;;;;5003246;28;20472;-66
2022/08/06 02:12:47;;;;;;;3.27;1.70;;;20.90;99.90;;;;;;5003894;28;20457;-66
2022/08/06 02:15:26;;;;;;;2.70;1.60;;;20.90;99.90;;;;;;5003111;28;21236;-67
2022/08/06 02:17:56;;;;;;;2.83;1.70;;;20.90;99.90;;;;;;5003390;28;20407;-66
2022/08/06 02:20:44;;;;;;;4.13;1.53;;;20.80;99.90;;;;;;5003240;28;20775;-67
2022/08/06 02:23:14;;;;;;;2.20;1.40;;;20.70;99.90;;;;;;5002870;28;20433;-69
2022/08/06 02:25:41;;;;;;;2.13;1.73;;;20.60;99.90;;;;;;5002702;28;20454;-70
2022/08/06 02:28:10;;;;;;;1.70;1.60;;;20.60;99.90;;;;;;5003339;28;20415;-66
2022/08/06 02:30:40;;;;;;;2.00;1.80;;;20.60;99.90;;;;;;5003476;28;20454;-68
2022/08/06 02:33:07;;;;;;;2.43;2.20;;;20.50;99.90;;;;;;5003232;28;20403;-68
2022/08/06 02:35:44;;;;;;;2.30;1.70;;;20.60;99.90;;;;;;5003348;28;20418;-69
2022/08/06 02:38:21;;;;;;;2.73;1.63;;;20.70;99.90;;;;;;5003149;28;20414;-68
2022/08/06 02:40:53;;;;;;;2.43;1.97;;;20.70;99.90;;;;;;5002742;28;20782;-67
2022/08/06 02:43:25;;;;;;;2.30;1.63;;;20.50;99.90;;;;;;5003253;28;20421;-70
2022/08/06 02:46:00;;;;;;;2.50;2.10;;;20.40;99.90;;;;;;5003232;28;20641;-71
2022/08/06 02:49:02;;;;;;;1.70;1.60;;;20.40;99.90;;;;;;5003597;28;20410;-70
2022/08/06 02:51:33;;;;;;;3.47;1.93;;;20.40;99.90;;;;;;5006845;28;20721;-70
2022/08/06 02:54:10;;;;;;;3.20;1.80;;;20.40;99.90;;;;;;5006550;28;20431;-70
2022/08/06 02:56:40;;;;;;;3.77;1.80;;;20.40;99.90;;;;;;5006997;28;20496;-70
2022/08/06 02:59:08;;;;;;;3.40;2.40;;;20.30;99.90;;;;;;5006891;28;20895;-70
2022/08/06 03:01:48;;;;;;;1.70;1.40;;;20.30;99.90;;;;;;5006299;28;20415;-71
2022/08/06 03:04:16;;;;;;;2.43;1.60;;;20.40;99.90;;;;;;5006000;28;20506;-71
2022/08/06 03:06:45;;;;;;;1.80;1.70;;;20.40;99.90;;;;;;5008100;28;20446;-70
2022/08/06 03:09:12;;;;;;;3.17;2.00;;;20.40;99.90;;;;;;5007109;28;20414;-70
2022/08/06 03:11:40;;;;;;;2.30;1.60;;;20.50;99.90;;;;;;5008486;28;20427;-70
2022/08/06 03:14:08;;;;;;;3.20;1.93;;;20.30;99.90;;;;;;5007667;28;20434;-69
2022/08/06 03:16:36;;;;;;;2.03;1.73;;;20.20;99.90;;;;;;5008187;28;20418;-68
2022/08/06 03:19:03;;;;;;;3.50;1.77;;;20.10;99.90;;;;;;5008482;28;20515;-70
2022/08/06 03:21:30;;;;;;;2.43;1.97;;;20.20;99.90;;;;;;5010672;28;20414;-69
2022/08/06 03:23:58;;;;;;;4.60;1.90;;;20.30;99.90;;;;;;5010605;28;20445;-68
2022/08/06 03:26:25;;;;;;;2.87;1.57;;;20.30;99.90;;;;;;5010437;28;20421;-67
2022/08/06 03:28:54;;;;;;;1.90;1.67;;;20.40;99.90;;;;;;5014011;28;20431;-68
2022/08/06 03:31:20;;;;;;;2.30;2.10;;;20.20;99.90;;;;;;5022789;28;20458;-68
2022/08/06 03:33:47;;;;;;;1.50;1.40;;;20.10;99.90;;;;;;5021872;28;21250;-68
2022/08/06 03:36:13;;;;;;;1.80;1.60;;;20.00;99.90;;;;;;5025119;28;20786;-68
2022/08/06 03:38:43;;;;;;;1.87;1.63;;;20.20;99.90;;;;;;5023143;28;20418;-68
2022/08/06 03:41:09;;;;;;;3.30;2.20;;;20.30;99.90;;;;;;5024230;28;20931;-68
2022/08/06 03:46:03;;;;;;;2.57;2.00;;;20.00;99.90;;;;;;5060373;22;21071;-68
2022/08/06 03:48:34;;;;;;;2.63;2.17;;;20.00;99.90;;;;;;5045406;28;20171;-67
2022/08/06 03:51:04;;;;;;;3.27;1.80;;;20.00;99.90;;;;;;5045318;28;21196;-67
2022/08/06 03:53:34;;;;;;;2.10;1.70;;;20.10;99.90;;;;;;5045533;28;20914;-67
2022/08/06 03:56:02;;;;;;;2.83;1.80;;;20.10;99.90;;;;;;5045053;28;20866;-68
2022/08/06 03:58:30;;;;;;;2.80;2.27;;;20.10;99.90;;;;;;5045327;28;20636;-69
2022/08/06 04:01:01;;;;;;;1.93;1.73;;;20.00;99.90;;;;;;5044949;28;20422;-69
2022/08/06 04:03:27;;;;;;;4.10;1.80;;;20.10;99.90;;;;;;5045299;28;20409;-69
2022/08/06 04:05:55;;;;;;;2.07;1.93;;;20.30;99.90;;;;;;5045212;28;20527;-69
2022/08/06 04:08:22;;;;;;;3.43;1.93;;;20.00;99.90;;;;;;5045038;28;20782;-69
2022/08/06 04:10:50;;;;;;;1.87;1.63;;;20.00;99.90;;;;;;5044792;28;20474;-69
2022/08/06 04:13:17;;;;;;;2.20;2.00;;;19.80;99.90;;;;;;5045440;28;20413;-69
2022/08/06 04:15:44;;;;;;;3.70;1.80;;;19.90;99.90;;;;;;5045580;28;20435;-67
2022/08/06 04:18:15;;;;;;;1.93;1.50;;;19.90;99.90;;;;;;5045169;28;20915;-69
2022/08/06 04:20:47;;;;;;;2.90;2.40;;;19.90;99.90;;;;;;5044790;28;20463;-68
2022/08/06 04:23:13;;;;;;;2.70;1.90;;;19.90;99.90;;;;;;5044873;28;20401;-68
2022/08/06 04:25:41;;;;;;;3.27;2.03;;;19.90;99.90;;;;;;5045021;28;20436;-68
2022/08/06 04:28:08;;;;;;;2.40;1.70;;;19.80;99.90;;;;;;5045342;28;20508;-68
2022/08/06 04:30:35;;;;;;;2.30;2.10;;;19.80;99.90;;;;;;5044782;28;20975;-69
2022/08/06 04:33:05;;;;;;;2.40;2.20;;;19.70;99.90;;;;;;5044476;28;20509;-69
2022/08/06 04:35:31;;;;;;;2.93;2.03;;;19.70;99.90;;;;;;5044704;28;20429;-68
2022/08/06 04:37:59;;;;;;;2.70;2.20;;;19.60;99.90;;;;;;5044829;28;20405;-68
2022/08/06 04:40:25;;;;;;;2.30;1.80;;;19.70;99.90;;;;;;5042999;28;20413;-68
2022/08/06 04:42:51;;;;;;;3.37;2.00;;;19.90;99.90;;;;;;5044434;28;20415;-68
2022/08/06 04:45:17;;;;;;;3.33;2.10;;;19.90;99.90;;;;;;5044464;28;20547;-68
2022/08/06 04:47:44;;;;;;;2.60;1.93;;;19.90;99.90;;;;;;5044202;28;20197;-68
2022/08/06 04:50:10;;;;;;;3.03;2.03;;;20.00;99.90;;;;;;5044161;28;20449;-68
2022/08/06 04:52:36;;;;;;;2.00;1.80;;;20.00;99.90;;;;;;5044379;28;20512;-68
2022/08/06 04:55:03;;;;;;;3.73;2.40;;;20.30;99.90;;;;;;5043541;28;21252;-68
2022/08/06 04:57:29;;;;;;;3.30;2.00;;;20.10;99.90;;;;;;5043966;28;20925;-69
2022/08/06 04:59:54;;;;;;;2.70;1.90;;;20.00;99.90;;;;;;5043983;28;20417;-68
2022/08/06 05:02:20;;;;;;;3.40;1.80;;;20.00;99.90;;;;;;5044357;28;20198;-68
2022/08/06 05:04:47;;;;;;;2.57;2.10;;;19.80;99.90;;;;;;5044195;28;20472;-68
2022/08/06 05:07:23;;;;;;;2.73;1.90;;;19.70;99.90;;;;;;5044029;28;20421;-68
2022/08/06 05:09:49;;;;;;;2.47;2.27;;;19.70;99.90;;;;;;5043566;28;20448;-68
2022/08/06 05:12:36;;;;;;;2.43;1.80;;;20.00;99.90;;;;;;5044242;28;20810;-68
2022/08/06 05:15:08;;;;;;;2.43;2.10;;;20.20;99.90;;;;;;5043674;28;20432;-68
2022/08/06 05:17:46;;;;;;;2.60;2.27;;;20.00;99.90;;;;;;5043327;28;20508;-69
2022/08/06 05:20:16;;;;;;;3.33;2.10;;;20.20;99.90;;;;;;5044113;28;20428;-68
2022/08/06 05:22:45;;;;;;;2.00;1.90;;;20.30;99.90;;;;;;5025727;28;20475;-68
2022/08/06 05:25:11;;;;;;;4.00;2.10;;;20.30;99.90;;;;;;5043297;28;20444;-68
2022/08/06 05:27:37;;;;;;;5.13;2.03;;;20.20;99.90;;;;;;5043907;28;20417;-68
2022/08/06 05:30:04;;;;;;;4.10;2.50;;;20.10;99.90;;;;;;5043428;28;20198;-68
2022/08/06 05:32:29;;;;;;;2.47;1.90;;;20.00;99.90;;;;;;5043929;28;20187;-67
2022/08/06 05:34:55;;;;;;;2.40;2.20;;;20.00;99.90;;;;;;5043748;28;20478;-68
2022/08/06 05:37:20;;;;;;;2.50;2.00;;;19.70;99.90;;;;;;5043798;28;20175;-67
2022/08/06 05:39:46;;;;;;;2.83;2.63;;;19.70;99.90;;;;;;5043628;28;20171;-69
2022/08/06 05:42:12;;;;;;;2.47;2.00;;;19.70;99.90;;;;;;5043899;28;21076;-68
2022/08/06 05:44:37;;;;;;;3.13;2.23;;;19.60;99.90;;;;;;5044104;28;20761;-68
2022/08/06 05:47:13;;;;;;;5.73;2.30;;;19.30;99.90;;;;;;5043859;28;20424;-68
2022/08/06 05:49:47;;;;;;;2.70;2.50;;;19.40;99.90;;;;;;5043823;28;20198;-67
2022/08/06 05:52:22;;;;;;;4.93;2.60;;;19.60;99.90;;;;;;5043887;28;20409;-66
2022/08/06 05:54:53;;;;;;;2.10;1.90;;;19.60;99.90;;;;;;5043751;28;20428;-68
2022/08/06 05:57:33;;;;;;;4.80;2.40;;;19.60;99.90;;;;;;5043597;28;20401;-67
2022/08/06 06:00:08;;;;;;;2.77;2.57;;;19.60;99.90;;;;;;5044037;28;20771;-68
2022/08/06 06:02:35;;;;;;;4.17;2.70;;;19.50;99.90;;;;;;5043392;28;20401;-68
2022/08/06 06:05:01;;;;;;;4.13;2.20;;;19.60;99.90;;;;;;5043413;28;20448;-67
2022/08/06 06:07:27;;;;;;;2.10;1.90;;;19.50;99.90;;;;;;5043573;28;20793;-68
2022/08/06 06:09:55;;;;;;;3.50;2.70;;;19.60;99.90;;;;;;5043142;28;20456;-67
2022/08/06 06:12:22;;;;;;;2.70;2.50;;;19.60;99.90;;;;;;5043449;28;20417;-68
2022/08/06 06:14:48;;;;;;;3.57;2.33;;;19.60;99.90;;;;;;5043842;28;20433;-71
2022/08/06 06:17:54;;;;;;;3.20;2.53;;;19.70;99.90;;;;;;5043073;28;20413;-70
2022/08/06 06:20:28;;;;;;;2.30;2.10;;;19.60;99.90;;;;;;5043469;28;20417;-69
2022/08/06 06:23:11;;;;;;;3.57;2.60;;;19.80;99.90;;;;;;5042149;28;20455;-69
2022/08/06 06:26:03;;;;;;;3.73;2.50;;;20.20;99.90;;;;;;5045248;28;20437;-69
2022/08/06 06:29:03;;;;;;;3.90;2.77;;;20.00;99.90;;;;;;5046888;28;20771;-70
2022/08/06 06:31:50;;;;;;;3.40;2.60;;;19.90;99.90;;;;;;5046886;28;20466;-68
2022/08/06 06:34:25;;;;;;;2.90;2.70;;;19.80;99.90;;;;;;5047119;28;20439;-69
2022/08/06 06:37:04;;;;;;;4.00;2.77;;;19.70;99.90;;;;;;5047187;28;20427;-69
2022/08/06 06:40:06;;;;;;;3.03;2.73;;;19.60;99.90;;;;;;5046414;28;20450;-69
2022/08/06 06:42:40;;;;;;;3.83;2.70;;;19.60;99.90;;;;;;5046515;28;21187;-69
2022/08/06 06:45:17;;;;;;;2.50;2.17;;;19.70;99.90;;;;;;5046651;28;20460;-69
2022/08/06 06:47:59;;;;;;;2.93;2.60;;;20.00;99.90;;;;;;5046816;28;20415;-69
2022/08/06 06:50:28;;;;;;;3.60;2.50;;;19.90;99.90;;;;;;5046944;28;20610;-69
2022/08/06 06:52:55;;;;;;;4.07;2.80;;;19.70;99.90;;;;;;5046779;28;20471;-68
2022/08/06 06:55:32;;;;;;;2.90;2.57;;;19.50;99.90;;;;;;5045828;28;21344;-68
2022/08/06 06:58:10;;;;;;;3.13;2.87;;;19.40;99.90;;;;;;5046796;28;20896;-69
2022/08/06 07:00:37;;;;;;;5.07;3.03;;;19.60;99.90;;;;;;5046769;28;20915;-68
2022/08/06 07:03:04;;;;;;;2.70;2.50;;;19.70;99.90;;;;;;5046457;28;20417;-68
2022/08/06 07:05:32;;;;;;;3.00;2.70;;;19.90;99.90;;;;;;5046394;28;20433;-68
2022/08/06 07:07:59;;;;;;;3.03;2.70;;;20.00;99.90;;;;;;5046387;28;20456;-69
2022/08/06 07:10:25;;;;;;;5.00;2.80;;;20.00;99.90;;;;;;5045770;28;20459;-68
2022/08/06 07:12:51;;;;;;;3.20;2.90;;;20.20;99.90;;;;;;5046084;28;20429;-68
2022/08/06 07:15:19;;;;;;;3.93;2.60;;;20.20;99.90;;;;;;5046408;28;20499;-69
2022/08/06 07:17:46;;;;;;;3.77;2.70;;;20.10;99.90;;;;;;5046128;28;20420;-67
2022/08/06 07:20:13;;;;;;;3.50;2.60;;;20.20;99.90;;;;;;5045985;28;20692;-67
2022/08/06 07:22:42;;;;;;;2.93;2.67;;;20.10;99.90;;;;;;5046399;28;20428;-67
2022/08/06 07:25:10;;;;;;;2.90;2.70;;;20.00;99.90;;;;;;5045975;28;21013;-68
2022/08/06 07:27:40;;;;;;;3.07;2.80;;;20.10;99.90;;;;;;5045749;28;20416;-70
2022/08/06 07:30:07;;;;;;;2.97;2.67;;;20.10;99.90;;;;;;5045733;28;20484;-68
2022/08/06 07:32:36;;;;;;;3.53;2.50;;;20.10;99.90;;;;;;5045497;28;20421;-68
2022/08/06 07:35:07;;;;;;;5.53;2.87;;;20.30;99.90;;;;;;5045756;28;20440;-68
2022/08/06 07:37:35;;;;;;;2.63;2.20;;;20.40;99.90;;;;;;5027782;28;20471;-68
2022/08/06 07:40:02;;;;;;;7.60;2.87;;;20.60;99.90;;;;;;5044706;28;20432;-68
2022/08/06 07:42:28;;;;;;;2.73;2.53;;;20.70;99.90;;;;;;5045950;28;20425;-68
2022/08/06 07:45:00;;;;;;;3.03;2.53;;;20.60;99.90;;;;;;5045360;28;20503;-68
2022/08/06 07:47:34;;;;;;;3.17;2.43;;;20.60;99.90;;;;;;5045346;28;20416;-68
2022/08/06 07:49:59;;;;;;;2.60;2.40;;;20.80;99.90;;;;;;5045400;28;20449;-68
2022/08/06 07:52:25;;;;;;;3.17;2.17;;;20.90;99.90;;;;;;5045676;28;20409;-68
2022/08/06 07:54:53;;;;;;;3.43;2.37;;;21.00;99.90;;;;;;5045121;28;20190;-68
2022/08/06 07:57:19;;;;;;;2.70;2.20;;;21.00;99.90;;;;;;5045846;28;20452;-68
2022/08/06 07:59:47;;;;;;;3.97;2.77;;;21.00;99.90;;;;;;5045360;28;20413;-69
2022/08/06 08:02:13;;;;;;;4.40;3.13;;;20.90;99.90;;;;;;5045228;28;20519;-68
2022/08/06 08:07:24;;;;;;;5.57;2.70;;;20.70;99.90;;;;;;5045162;28;20428;-68
2022/08/06 08:09:51;;;;;;;7.40;2.87;;;20.90;99.90;;;;;;5045203;28;20460;-68
2022/08/06 08:12:18;;;;;;;4.53;2.70;;;21.00;99.90;;;;;;5045520;28;21025;-68
2022/08/06 08:14:46;;;;;;;3.13;2.83;;;20.80;99.90;;;;;;5045282;28;20424;-68
2022/08/06 08:17:12;;;;;;;2.40;2.20;;;20.90;99.90;;;;;;5045309;28;20421;-68
2022/08/06 08:19:38;;;;;;;6.40;2.80;;;21.10;99.90;;;;;;5045061;28;20418;-67
2022/08/06 08:22:08;;;;;;;2.80;2.60;;;21.00;99.90;;;;;;5045477;28;20178;-67
2022/08/06 08:24:35;;;;;;;2.93;2.50;;;20.90;99.90;;;;;;5044567;28;20202;-67
2022/08/06 08:27:03;;;;;;;3.37;2.50;;;20.80;99.90;;;;;;5044682;28;20413;-67
2022/08/06 08:29:29;;;;;;;5.97;3.20;;;20.70;99.90;;;;;;5044944;28;20428;-68
2022/08/06 08:31:55;;;;;;;3.10;2.60;;;20.60;99.90;;;;;;5044794;28;21286;-68
2022/08/06 08:34:21;;;;;;;2.50;2.30;;;20.70;99.90;;;;;;5044275;28;20432;-69
2022/08/06 08:36:47;;;;;;;3.07;2.77;;;20.70;99.90;;;;;;5043423;28;20500;-68
2022/08/06 08:39:14;;;;;;;3.23;2.77;;;20.70;99.90;;;;;;5044760;28;20500;-69
2022/08/06 08:41:44;;;;;;;2.87;2.67;;;20.80;99.90;;;;;;5044330;28;20186;-68
2022/08/06 08:44:11;;;;;;;3.20;3.00;;;21.00;99.90;;;;;;5026517;28;20989;-67
2022/08/06 08:46:43;;;;;;;4.30;3.03;;;21.10;99.90;;;;;;5045694;28;20790;-68
2022/08/06 08:49:25;;;;;;;2.50;2.30;;;21.00;99.90;;;;;;5044351;28;20930;-68
2022/08/06 08:51:51;;;;;;;3.60;2.80;;;21.40;99.90;;;;;;5044626;28;20413;-69
2022/08/06 08:54:22;;;;;;;3.10;2.63;;;21.70;99.90;;;;;;5044123;28;20776;-69
2022/08/06 08:56:48;;;;;;;4.30;2.87;;;21.90;99.90;;;;;;5043952;28;20456;-68
2022/08/06 08:59:15;;;;;;;3.60;2.20;;;21.90;99.90;;;;;;5044140;28;20409;-68
2022/08/06 09:01:41;;;;;;;3.10;2.80;;;22.20;99.90;;;;;;5044462;28;20922;-69
2022/08/06 09:04:07;;;;;;;4.13;2.40;;;22.30;99.90;;;;;;5043347;28;20801;-69
2022/08/06 09:06:36;;;;;;;6.03;2.10;;;22.30;99.90;;;;;;5044618;28;20409;-68
2022/08/06 09:09:04;;;;;;;5.13;2.83;;;22.20;99.90;;;;;;5044420;28;20182;-68
2022/08/06 09:11:33;;;;;;;4.77;2.30;;;22.20;99.90;;;;;;5025732;28;21150;-67
2022/08/06 09:14:01;;;;;;;3.33;2.60;;;22.10;99.90;;;;;;5042560;28;20440;-67
2022/08/06 09:16:28;;;;;;;2.73;2.53;;;22.00;99.90;;;;;;5042530;28;21017;-68
2022/08/06 09:18:54;;;;;;;2.73;2.53;;;21.90;99.90;;;;;;5044474;28;20435;-69
2022/08/06 09:21:20;;;;;;;3.07;2.23;;;22.10;99.90;;;;;;5045389;28;20916;-69
2022/08/06 09:23:46;;;;;;;2.60;2.40;;;22.20;99.90;;;;;;5044361;28;20500;-69
2022/08/06 09:26:11;;;;;;;2.63;2.33;;;22.40;99.90;;;;;;5044140;28;20178;-69
2022/08/06 09:28:42;;;;;;;3.67;2.43;;;22.60;99.40;;;;;;5044027;28;20566;-68
2022/08/06 09:31:13;;;;;;;2.70;2.50;;;22.50;99.50;;;;;;5044183;28;21076;-69
2022/08/06 09:33:42;;;;;;;3.37;2.53;;;22.50;98.80;;;;;;5044982;28;20987;-70
2022/08/06 09:36:13;;;;;;;3.20;2.90;;;22.50;98.90;;;;;;5044278;28;20784;-68
2022/08/06 09:38:51;;;;;;;2.93;2.50;;;22.50;98.00;;;;;;5044226;28;20619;-69
2022/08/06 09:41:19;;;;;;;3.03;2.83;;;22.70;98.00;;;;;;5043988;28;20420;-69
2022/08/06 09:43:47;;;;;;;4.70;2.67;;;22.70;98.10;;;;;;5042566;28;20432;-68
2022/08/06 09:46:12;;;;;;;2.47;2.27;;;22.60;98.30;;;;;;5043813;28;20591;-69
2022/08/06 09:48:59;;;;;;;3.03;2.40;;;23.00;98.00;;;;;;5043421;28;20529;-67
2022/08/06 09:51:26;;;;;;;2.50;2.30;;;23.50;97.60;;;;;;5043715;28;20526;-70
2022/08/06 09:53:57;;;;;;;3.90;3.03;;;23.30;97.60;;;;;;5043643;28;20409;-69
2022/08/06 09:56:23;;;;;;;2.90;2.70;;;23.00;97.20;;;;;;5043740;28;20471;-68
2022/08/06 09:58:49;;;;;;;3.63;2.70;;;22.80;97.80;;;;;;5043663;28;20413;-70
2022/08/06 10:01:20;;;;;;;6.17;2.60;;;23.30;97.40;;;;;;5047388;28;20423;-69
2022/08/06 10:03:46;;;;;;;3.40;2.10;;;23.10;97.00;;;;;;5048389;28;20178;-69
2022/08/06 10:06:14;;;;;;;2.83;2.60;;;23.50;97.20;;;;;;5047203;28;20467;-68
2022/08/06 10:08:41;;;;;;;6.00;2.70;;;23.90;96.20;;;;;;5048118;28;20412;-68
2022/08/06 10:11:07;;;;;;;3.03;2.60;;;24.00;95.50;;;;;;5047384;28;21182;-70
2022/08/06 10:13:35;;;;;;;2.27;1.90;;;24.30;95.30;;;;;;5048003;28;20940;-70
2022/08/06 10:16:15;;;;;;;3.00;2.30;;;24.30;95.70;;;;;;5029537;28;20440;-69
2022/08/06 10:18:46;;;;;;;4.30;2.57;;;24.70;94.40;;;;;;5047449;28;20466;-70
2022/08/06 10:21:15;;;;;;;5.03;2.60;;;24.50;94.80;;;;;;5047542;28;20420;-69
2022/08/06 10:23:43;;;;;;;2.30;2.10;;;24.30;94.60;;;;;;5047137;28;20424;-69
2022/08/06 10:26:11;;;;;;;2.30;2.10;;;24.50;94.00;;;;;;5047244;28;20421;-69
2022/08/06 10:28:39;;;;;;;4.00;2.77;;;24.50;94.40;;;;;;5047193;28;20421;-69
2022/08/06 10:31:09;;;;;;;3.43;2.93;;;24.50;94.20;;;;;;5047212;28;20445;-70
2022/08/06 10:33:59;;;;;;;2.93;2.73;;;24.30;94.00;;;;;;5047378;28;20420;-70
2022/08/06 10:36:37;;;;;;;2.70;2.30;;;24.20;94.10;;;;;;5047092;28;20405;-69
2022/08/06 10:39:04;;;;;;;2.97;2.40;;;24.20;93.90;;;;;;5047379;28;20404;-68
2022/08/06 10:41:30;;;;;;;3.17;2.43;;;24.20;94.20;;;;;;5046522;28;20827;-69
2022/08/06 10:43:57;;;;;;;2.47;2.27;;;24.50;93.60;;;;;;5045603;28;20450;-69
2022/08/06 10:46:23;;;;;;;2.17;2.07;;;24.60;93.30;;;;;;5047194;28;20416;-69
2022/08/06 10:48:49;;;;;;;2.80;2.30;;;25.00;93.10;;;;;;5046710;28;20834;-68
2022/08/06 10:51:15;;;;;;;2.87;2.07;;;24.80;92.00;;;;;;5046874;28;20444;-69
2022/08/06 10:53:44;;;;;;;3.23;2.93;;;24.60;91.80;;;;;;5046649;28;20563;-68
2022/08/06 10:56:14;;;;;;;3.13;2.23;;;24.20;92.20;;;;;;5046786;28;20260;-70
2022/08/06 10:58:41;;;;;;;3.10;2.40;;;24.50;92.60;;;;;;5046016;28;20889;-70
2022/08/06 11:01:21;;;;;;;3.27;2.97;;;24.60;92.00;;;;;;5046640;28;20409;-68
2022/08/06 11:04:01;;;;;;;3.20;2.40;;;24.70;91.60;;;;;;5046369;28;20413;-68
2022/08/06 11:06:33;;;;;;;4.37;2.00;;;25.50;90.80;;;;;;5046269;28;20409;-69
2022/08/06 11:09:16;;;;;;;2.80;2.50;;;25.50;90.90;;;;;;5046149;28;20409;-71
2022/08/06 11:12:14;;;;;;;2.60;2.40;;;25.10;90.30;;;;;;5045952;28;20432;-70
2022/08/06 11:14:41;;;;;;;3.07;2.77;;;24.00;91.90;;;;;;5045934;28;20426;-70
2022/08/06 11:17:06;;;;;;;5.87;3.37;;;24.20;92.20;;;;;;5046046;28;20443;-69
2022/08/06 11:19:49;;;;;;;2.90;2.50;;;24.10;91.90;;;;;;5046410;28;20417;-70
2022/08/06 11:22:39;;;;;;;2.40;2.10;;;24.50;91.80;;;;;;5046427;28;20261;-70
2022/08/06 11:25:08;;;;;;;1.90;1.80;;;25.30;91.00;;;;;;5046146;28;20909;-70
2022/08/06 11:27:50;;;;;;;2.33;2.13;;;26.00;87.20;;;;;;5046321;28;20829;-69
2022/08/06 11:30:17;;;;;;;2.50;2.30;;;25.80;87.20;;;;;;5046301;28;20441;-68
2022/08/06 11:32:52;;;;;;;2.80;2.00;;;25.70;87.20;;;;;;5046068;28;20499;-69
2022/08/06 11:35:33;;;;;;;2.23;2.03;;;26.10;87.80;;;;;;5045980;28;20451;-68
2022/08/06 11:38:06;;;;;;;2.30;1.97;;;26.20;85.80;;;;;;5045820;28;20415;-69
2022/08/06 11:40:52;;;;;;;3.53;2.30;;;26.50;85.20;;;;;;5045866;28;20473;-68
2022/08/06 11:43:40;;;;;;;2.43;2.07;;;25.90;85.90;;;;;;5020327;28;20836;-66
2022/08/06 11:46:21;;;;;;;2.30;2.10;;;26.40;84.60;;;;;;5045658;28;21286;-68
2022/08/06 11:48:59;;;;;;;5.23;2.60;;;27.20;82.70;;;;;;5045552;28;20589;-67
2022/08/06 11:51:51;;;;;;;2.77;2.37;;;26.80;82.40;;;;;;5045697;28;20445;-68
2022/08/06 11:54:25;;;;;;;3.07;2.13;;;25.80;85.20;;;;;;5045524;28;20439;-68
2022/08/06 11:57:06;;;;;;;3.23;2.40;;;25.60;86.30;;;;;;5045523;28;20419;-68
2022/08/06 11:59:47;;;;;;;2.97;2.77;;;26.30;85.50;;;;;;5045101;28;20440;-68
2022/08/06 12:02:33;;;;;;;2.80;2.60;;;26.90;82.00;;;;;;5045736;28;20779;-69
2022/08/06 12:04:58;;;;;;;2.30;2.10;;;26.40;82.80;;;;;;5045603;28;20921;-66
2022/08/06 12:07:29;;;;;;;2.63;1.80;;;26.80;81.60;;;;;;5045183;28;20478;-66
2022/08/06 12:10:07;;;;;;;3.20;2.10;;;28.40;78.90;;;;;;5043951;28;20191;-67
2022/08/06 12:12:33;;;;;;;2.27;2.07;;;29.00;76.90;;;;;;5045115;28;20397;-69
2022/08/06 12:15:03;;;;;;;3.73;2.33;;;29.50;74.20;;;;;;5044936;28;20421;-69
2022/08/06 12:17:30;;;;;;;3.67;1.53;;;29.60;71.50;;;;;;5045147;28;20652;-68
2022/08/06 12:20:00;;;;;;;2.70;1.80;;;30.40;70.10;;;;;;5045136;28;20417;-68
2022/08/06 12:22:26;;;;;;;2.50;1.80;;;31.20;66.00;;;;;;5044007;28;20413;-69
2022/08/06 12:24:54;;;;;;;2.87;1.80;;;31.40;66.10;;;;;;5045240;28;20460;-69
2022/08/06 12:27:21;;;;;;;2.53;2.33;;;32.40;62.10;;;;;;5044774;28;20228;-66
2022/08/06 12:29:48;;;;;;;2.20;1.80;;;31.80;61.00;;;;;;5044423;28;20430;-68
2022/08/06 12:32:21;;;;;;;2.10;1.90;;;29.80;64.80;;;;;;5044537;28;20704;-69
2022/08/06 12:34:47;;;;;;;2.20;2.00;;;30.30;64.40;;;;;;5044226;28;20421;-67
2022/08/06 12:37:13;;;;;;;2.03;1.50;;;29.70;65.70;;;;;;5044721;28;20902;-67
2022/08/06 12:42:26;;;;;;;4.33;2.10;;;29.70;66.60;;;;;;5044860;28;20174;-69
2022/08/06 12:44:51;;;;;;;3.90;2.20;;;31.20;63.40;;;;;;5043383;28;20955;-69
2022/08/06 12:47:17;;;;;;;5.17;2.00;;;30.00;63.60;;;;;;5045285;28;20555;-71
2022/08/06 12:49:42;;;;;;;2.30;1.90;;;27.80;68.50;;;;;;5044890;28;20198;-68
2022/08/06 12:52:17;;;;;;;3.13;2.23;;;27.40;71.60;;;;;;5044497;28;20224;-69
2022/08/06 12:54:43;;;;;;;2.63;2.17;;;27.70;70.30;;;;;;5026631;28;20194;-67
2022/08/06 12:57:22;;;;;;;2.53;2.33;;;28.10;69.00;;;;;;5044900;28;20446;-70
2022/08/06 12:59:49;;;;;;;2.40;2.20;;;28.80;67.80;;;;;;5044755;28;20776;-69
2022/08/06 13:02:18;;;;;;;2.90;1.77;;;30.40;63.70;;;;;;5044686;28;20409;-69
2022/08/06 13:04:49;;;;;;;3.10;2.20;;;31.00;62.00;;;;;;5044695;28;20425;-69
2022/08/06 13:07:15;;;;;;;4.57;2.33;;;31.30;59.80;;;;;;5044447;28;20416;-69
2022/08/06 13:09:43;;;;;;;3.30;1.87;;;30.60;61.30;;;;;;5044643;28;20470;-69
2022/08/06 13:12:13;;;;;;;4.00;1.73;;;30.40;61.60;;;;;;5044521;28;21247;-69